Albuquerque, NM (87120)

1:47 PM MST on February 12, 2016 (GMT -0700)
Taylor Ranch (Montano/Cochiti) | | Change Station
CLOSE
Current Station
Personal Weather Station
Location: Albuquerque, NM
Elevation: 5135 ft
Nearby Weather Stations

Elev 5135 ft 35.15 °N, 106.71 °W | Updated 33 seconds ago

Clear
Clear
72.7 °F
Feels Like 74 °F
N
2.2
Wind Variable Wind from SW
Gusts 3.1 mph

Today
High -- | Low -- °F
--% Chance of Precip.
Yesterday
High -- | Low -- °F
Precip. -- in
Pressure 30.22 in
Visibility 10.0 miles
Clouds Clear
Heat Index 74 °F
Dew Point 24 °F
Humidity 16%
Rainfall 0.00 in
Snow Depth Not available.
6:56 AM 5:46 PM
Waxing Crescent, 23% visible
METAR KABQ 121952Z 34005KT 10SM CLR 17/M08 A3034 RMK AO2 SLP234 T01671078
Pressure 30.22 in
Visibility 10.0 miles
Clouds Clear
Heat Index 74 °F
Dew Point 24 °F
Humidity 16%
Rainfall 0.00 in
Snow Depth Not available.
6:56 AM 5:46 PM
Waxing Crescent, 23% visible
METAR KABQ 121952Z 34005KT 10SM CLR 17/M08 A3034 RMK AO2 SLP234 T01671078

10-Day Weather Forecast

Almanac

Astronomy

Feb. 12, 2016 Rise Set
Actual Time
Civil Twilight
Nautical Twilight
Astronomical Twilight
Moon
Length of Visible Light
Length of Day
Tomorrow will be .
, % of the Moon is Illuminated

Today's Extremes

State Highs State Lows

Community

WunderPhotos

Upload Photos

1,892,389 photos uploaded!

WunderBlog® & News

Nearby

Air Quality

  Air Quality AQ Index Pollutant
Not available.

Snow Depth

Station Depth Elevation

Earthquake Activity

City Distance Mag. Time & Date
Minimum magnitude displayed is 2.5.

Coastal Water Temperatures

Place Temperature

Stations

Nearby Weather Stations

Station Location Temp. Windchill Dew Point Humidity Wind Precip. Elev Updated Type
                   

Watches & Warnings

There are currently no watches in effect.